sensor_id;sensor_type;location;lat;lon;timestamp;P1;durP1;ratioP1;P2;durP2;ratioP2
64674;SDS011;51090;51.512;11.332;2022-08-18T00:02:25;5.95;;;2.38;;
64674;SDS011;51090;51.512;11.332;2022-08-18T00:04:53;5.78;;;2.80;;
64674;SDS011;51090;51.512;11.332;2022-08-18T00:07:21;4.40;;;2.53;;
64674;SDS011;51090;51.512;11.332;2022-08-18T00:09:52;5.53;;;2.72;;
64674;SDS011;51090;51.512;11.332;2022-08-18T00:12:22;4.40;;;2.47;;
64674;SDS011;51090;51.512;11.332;2022-08-18T00:14:52;3.65;;;2.95;;
64674;SDS011;51090;51.512;11.332;2022-08-18T00:17:19;3.47;;;2.63;;
64674;SDS011;51090;51.512;11.332;2022-08-18T00:19:45;4.68;;;2.78;;
64674;SDS011;51090;51.512;11.332;2022-08-18T00:22:12;4.43;;;3.00;;
64674;SDS011;51090;51.512;11.332;2022-08-18T00:24:46;3.72;;;2.42;;
64674;SDS011;51090;51.512;11.332;2022-08-18T00:27:23;6.68;;;3.50;;
64674;SDS011;51090;51.512;11.332;2022-08-18T00:29:55;4.53;;;2.50;;
64674;SDS011;51090;51.512;11.332;2022-08-18T00:32:25;4.47;;;2.97;;
64674;SDS011;51090;51.512;11.332;2022-08-18T00:34:54;4.93;;;2.75;;
64674;SDS011;51090;51.512;11.332;2022-08-18T00:37:21;5.55;;;3.00;;
64674;SDS011;51090;51.512;11.332;2022-08-18T00:39:51;3.72;;;2.72;;
64674;SDS011;51090;51.512;11.332;2022-08-18T00:42:19;4.13;;;3.03;;
64674;SDS011;51090;51.512;11.332;2022-08-18T00:44:51;4.93;;;2.60;;
64674;SDS011;51090;51.512;11.332;2022-08-18T00:47:18;3.42;;;2.63;;
64674;SDS011;51090;51.512;11.332;2022-08-18T00:49:44;3.75;;;2.70;;
64674;SDS011;51090;51.512;11.332;2022-08-18T00:52:13;6.20;;;2.83;;
64674;SDS011;51090;51.512;11.332;2022-08-18T00:54:40;5.03;;;2.60;;
64674;SDS011;51090;51.512;11.332;2022-08-18T00:57:10;4.97;;;2.63;;
64674;SDS011;51090;51.512;11.332;2022-08-18T01:02:22;3.22;;;2.63;;
64674;SDS011;51090;51.512;11.332;2022-08-18T01:07:48;4.82;;;2.50;;
64674;SDS011;51090;51.512;11.332;2022-08-18T01:10:15;4.90;;;2.85;;
64674;SDS011;51090;51.512;11.332;2022-08-18T01:12:45;3.92;;;2.50;;
64674;SDS011;51090;51.512;11.332;2022-08-18T01:15:15;4.53;;;2.72;;
64674;SDS011;51090;51.512;11.332;2022-08-18T01:17:43;4.80;;;2.90;;
64674;SDS011;51090;51.512;11.332;2022-08-18T01:20:29;4.55;;;3.15;;
64674;SDS011;51090;51.512;11.332;2022-08-18T01:23:37;3.92;;;2.72;;
64674;SDS011;51090;51.512;11.332;2022-08-18T01:26:03;3.78;;;2.28;;
64674;SDS011;51090;51.512;11.332;2022-08-18T01:28:31;3.50;;;2.33;;
64674;SDS011;51090;51.512;11.332;2022-08-18T01:31:00;3.60;;;2.65;;
64674;SDS011;51090;51.512;11.332;2022-08-18T01:33:28;5.05;;;2.63;;
64674;SDS011;51090;51.512;11.332;2022-08-18T01:36:01;4.32;;;3.08;;
64674;SDS011;51090;51.512;11.332;2022-08-18T01:38:44;4.10;;;2.55;;
64674;SDS011;51090;51.512;11.332;2022-08-18T01:41:14;4.93;;;2.85;;
64674;SDS011;51090;51.512;11.332;2022-08-18T01:43:46;4.47;;;3.10;;
64674;SDS011;51090;51.512;11.332;2022-08-18T01:46:12;5.28;;;2.90;;
64674;SDS011;51090;51.512;11.332;2022-08-18T01:48:44;3.87;;;3.03;;
64674;SDS011;51090;51.512;11.332;2022-08-18T01:51:12;4.40;;;3.10;;
64674;SDS011;51090;51.512;11.332;2022-08-18T01:53:38;5.78;;;3.00;;
64674;SDS011;51090;51.512;11.332;2022-08-18T01:56:04;4.68;;;2.95;;
64674;SDS011;51090;51.512;11.332;2022-08-18T01:58:32;3.95;;;2.78;;
64674;SDS011;51090;51.512;11.332;2022-08-18T02:00:59;3.67;;;2.65;;
64674;SDS011;51090;51.512;11.332;2022-08-18T02:03:31;5.40;;;2.55;;
64674;SDS011;51090;51.512;11.332;2022-08-18T02:06:01;3.88;;;2.75;;
64674;SDS011;51090;51.512;11.332;2022-08-18T02:08:32;4.75;;;2.85;;
64674;SDS011;51090;51.512;11.332;2022-08-18T02:10:57;4.00;;;3.10;;
64674;SDS011;51090;51.512;11.332;2022-08-18T02:13:24;4.00;;;2.47;;
64674;SDS011;51090;51.512;11.332;2022-08-18T02:15:50;5.85;;;3.38;;
64674;SDS011;51090;51.512;11.332;2022-08-18T02:18:17;4.65;;;3.03;;
64674;SDS011;51090;51.512;11.332;2022-08-18T02:20:48;6.13;;;2.55;;
64674;SDS011;51090;51.512;11.332;2022-08-18T02:23:14;4.18;;;2.92;;
64674;SDS011;51090;51.512;11.332;2022-08-18T02:25:43;4.88;;;3.63;;
64674;SDS011;51090;51.512;11.332;2022-08-18T02:28:09;5.28;;;3.05;;
64674;SDS011;51090;51.512;11.332;2022-08-18T02:30:34;4.70;;;3.03;;
64674;SDS011;51090;51.512;11.332;2022-08-18T02:33:04;4.07;;;2.88;;
64674;SDS011;51090;51.512;11.332;2022-08-18T02:35:32;4.68;;;2.70;;
64674;SDS011;51090;51.512;11.332;2022-08-18T02:37:59;5.70;;;2.95;;
64674;SDS011;51090;51.512;11.332;2022-08-18T02:40:26;3.70;;;2.60;;
64674;SDS011;51090;51.512;11.332;2022-08-18T02:42:52;3.60;;;2.70;;
64674;SDS011;51090;51.512;11.332;2022-08-18T02:45:19;4.70;;;2.67;;
64674;SDS011;51090;51.512;11.332;2022-08-18T02:47:53;5.00;;;2.85;;
64674;SDS011;51090;51.512;11.332;2022-08-18T02:50:21;4.50;;;2.58;;
64674;SDS011;51090;51.512;11.332;2022-08-18T02:52:47;4.00;;;2.95;;
64674;SDS011;51090;51.512;11.332;2022-08-18T02:55:13;3.63;;;2.55;;
64674;SDS011;51090;51.512;11.332;2022-08-18T02:57:41;4.68;;;2.95;;
64674;SDS011;51090;51.512;11.332;2022-08-18T03:00:13;5.13;;;2.83;;
64674;SDS011;51090;51.512;11.332;2022-08-18T03:02:48;5.15;;;2.75;;
64674;SDS011;51090;51.512;11.332;2022-08-18T03:05:16;4.00;;;2.63;;
64674;SDS011;51090;51.512;11.332;2022-08-18T03:07:43;4.90;;;2.85;;
64674;SDS011;51090;51.512;11.332;2022-08-18T03:10:09;3.95;;;2.67;;
64674;SDS011;51090;51.512;11.332;2022-08-18T03:12:35;6.07;;;2.95;;
64674;SDS011;51090;51.512;11.332;2022-08-18T03:15:01;4.95;;;3.10;;
64674;SDS011;51090;51.512;11.332;2022-08-18T03:17:28;4.93;;;2.65;;
64674;SDS011;51090;51.512;11.332;2022-08-18T03:19:55;4.93;;;3.30;;
64674;SDS011;51090;51.512;11.332;2022-08-18T03:22:21;4.47;;;3.10;;
64674;SDS011;51090;51.512;11.332;2022-08-18T03:24:48;5.50;;;3.10;;
64674;SDS011;51090;51.512;11.332;2022-08-18T03:27:13;3.83;;;3.00;;
64674;SDS011;51090;51.512;11.332;2022-08-18T03:29:39;4.63;;;2.47;;
64674;SDS011;51090;51.512;11.332;2022-08-18T03:32:05;4.43;;;3.17;;
64674;SDS011;51090;51.512;11.332;2022-08-18T03:34:32;3.50;;;2.88;;
64674;SDS011;51090;51.512;11.332;2022-08-18T03:36:59;4.10;;;3.00;;
64674;SDS011;51090;51.512;11.332;2022-08-18T03:39:25;5.43;;;2.70;;
64674;SDS011;51090;51.512;11.332;2022-08-18T03:41:52;6.43;;;3.58;;
64674;SDS011;51090;51.512;11.332;2022-08-18T03:44:19;4.97;;;3.05;;
64674;SDS011;51090;51.512;11.332;2022-08-18T03:46:47;5.65;;;3.17;;
64674;SDS011;51090;51.512;11.332;2022-08-18T03:49:15;4.35;;;3.15;;
64674;SDS011;51090;51.512;11.332;2022-08-18T03:51:43;5.28;;;2.95;;
64674;SDS011;51090;51.512;11.332;2022-08-18T03:54:16;3.58;;;2.60;;
64674;SDS011;51090;51.512;11.332;2022-08-18T03:56:44;5.28;;;3.10;;
64674;SDS011;51090;51.512;11.332;2022-08-18T03:59:13;4.53;;;3.13;;
64674;SDS011;51090;51.512;11.332;2022-08-18T04:01:51;3.72;;;3.08;;
64674;SDS011;51090;51.512;11.332;2022-08-18T04:04:20;4.43;;;3.03;;
64674;SDS011;51090;51.512;11.332;2022-08-18T04:06:49;5.63;;;3.33;;
64674;SDS011;51090;51.512;11.332;2022-08-18T04:09:22;5.03;;;3.22;;
64674;SDS011;51090;51.512;11.332;2022-08-18T04:11:50;6.47;;;3.40;;
64674;SDS011;51090;51.512;11.332;2022-08-18T04:14:17;6.43;;;3.63;;
64674;SDS011;51090;51.512;11.332;2022-08-18T04:16:45;6.45;;;3.88;;
64674;SDS011;51090;51.512;11.332;2022-08-18T04:19:13;6.18;;;3.78;;
64674;SDS011;51090;51.512;11.332;2022-08-18T04:21:41;5.22;;;3.42;;
64674;SDS011;51090;51.512;11.332;2022-08-18T04:24:07;7.20;;;4.13;;
64674;SDS011;51090;51.512;11.332;2022-08-18T04:26:37;12.10;;;5.57;;
64674;SDS011;51090;51.512;11.332;2022-08-18T04:29:10;10.27;;;5.70;;
64674;SDS011;51090;51.512;11.332;2022-08-18T04:31:38;8.55;;;6.57;;
64674;SDS011;51090;51.512;11.332;2022-08-18T04:34:04;10.05;;;6.45;;
64674;SDS011;51090;51.512;11.332;2022-08-18T04:36:31;11.40;;;5.85;;
64674;SDS011;51090;51.512;11.332;2022-08-18T04:38:59;11.55;;;6.38;;
64674;SDS011;51090;51.512;11.332;2022-08-18T04:41:26;11.45;;;7.45;;
64674;SDS011;51090;51.512;11.332;2022-08-18T04:43:56;11.98;;;8.98;;
64674;SDS011;51090;51.512;11.332;2022-08-18T04:46:25;13.35;;;10.05;;
64674;SDS011;51090;51.512;11.332;2022-08-18T04:48:51;12.55;;;7.93;;
64674;SDS011;51090;51.512;11.332;2022-08-18T04:51:22;9.60;;;7.07;;
64674;SDS011;51090;51.512;11.332;2022-08-18T04:53:50;11.13;;;6.80;;
64674;SDS011;51090;51.512;11.332;2022-08-18T04:58:50;9.45;;;6.25;;
64674;SDS011;51090;51.512;11.332;2022-08-18T05:01:33;10.65;;;6.95;;
64674;SDS011;51090;51.512;11.332;2022-08-18T05:04:11;9.05;;;6.35;;
64674;SDS011;51090;51.512;11.332;2022-08-18T05:06:40;8.70;;;7.15;;
64674;SDS011;51090;51.512;11.332;2022-08-18T05:09:08;18.83;;;13.30;;
64674;SDS011;51090;51.512;11.332;2022-08-18T05:11:35;21.15;;;14.27;;
64674;SDS011;51090;51.512;11.332;2022-08-18T05:14:03;19.25;;;13.25;;
64674;SDS011;51090;51.512;11.332;2022-08-18T05:16:33;19.38;;;12.73;;
64674;SDS011;51090;51.512;11.332;2022-08-18T05:19:01;13.02;;;8.73;;
64674;SDS011;51090;51.512;11.332;2022-08-18T05:21:28;12.48;;;8.93;;
64674;SDS011;51090;51.512;11.332;2022-08-18T05:23:55;10.57;;;8.00;;
64674;SDS011;51090;51.512;11.332;2022-08-18T05:26:21;14.23;;;8.68;;
64674;SDS011;51090;51.512;11.332;2022-08-18T05:28:46;25.15;;;15.02;;
64674;SDS011;51090;51.512;11.332;2022-08-18T05:31:17;16.05;;;10.95;;
64674;SDS011;51090;51.512;11.332;2022-08-18T05:33:46;15.98;;;10.45;;
64674;SDS011;51090;51.512;11.332;2022-08-18T05:36:35;19.27;;;13.20;;
64674;SDS011;51090;51.512;11.332;2022-08-18T05:39:34;13.82;;;10.52;;
64674;SDS011;51090;51.512;11.332;2022-08-18T05:42:15;14.45;;;10.00;;
64674;SDS011;51090;51.512;11.332;2022-08-18T05:44:46;10.23;;;8.82;;
64674;SDS011;51090;51.512;11.332;2022-08-18T05:49:52;13.23;;;9.20;;
64674;SDS011;51090;51.512;11.332;2022-08-18T05:52:21;14.13;;;8.45;;
64674;SDS011;51090;51.512;11.332;2022-08-18T05:58:18;12.18;;;8.90;;
64674;SDS011;51090;51.512;11.332;2022-08-18T06:03:20;11.88;;;8.27;;
64674;SDS011;51090;51.512;11.332;2022-08-18T06:05:55;12.77;;;9.40;;
64674;SDS011;51090;51.512;11.332;2022-08-18T06:08:30;14.52;;;9.70;;
64674;SDS011;51090;51.512;11.332;2022-08-18T06:11:04;11.93;;;9.05;;
64674;SDS011;51090;51.512;11.332;2022-08-18T06:13:31;11.90;;;8.20;;
64674;SDS011;51090;51.512;11.332;2022-08-18T06:16:06;9.50;;;7.15;;
64674;SDS011;51090;51.512;11.332;2022-08-18T06:21:55;10.88;;;7.68;;
64674;SDS011;51090;51.512;11.332;2022-08-18T06:24:45;10.60;;;7.93;;
64674;SDS011;51090;51.512;11.332;2022-08-18T06:30:19;11.23;;;8.93;;
64674;SDS011;51090;51.512;11.332;2022-08-18T06:33:01;13.63;;;9.95;;
64674;SDS011;51090;51.512;11.332;2022-08-18T06:41:46;13.82;;;10.05;;
64674;SDS011;51090;51.512;11.332;2022-08-18T06:44:25;15.02;;;10.60;;
64674;SDS011;51090;51.512;11.332;2022-08-18T06:47:13;14.13;;;9.43;;
64674;SDS011;51090;51.512;11.332;2022-08-18T06:50:06;15.68;;;11.45;;
64674;SDS011;51090;51.512;11.332;2022-08-18T06:52:57;13.80;;;10.48;;
64674;SDS011;51090;51.512;11.332;2022-08-18T06:55:36;14.98;;;10.07;;
64674;SDS011;51090;51.512;11.332;2022-08-18T07:00:38;13.67;;;9.13;;
64674;SDS011;51090;51.512;11.332;2022-08-18T07:03:17;12.60;;;9.88;;
64674;SDS011;51090;51.512;11.332;2022-08-18T07:06:08;14.55;;;10.07;;
64674;SDS011;51090;51.512;11.332;2022-08-18T07:08:55;12.60;;;9.35;;
64674;SDS011;51090;51.512;11.332;2022-08-18T07:12:01;14.13;;;9.43;;
64674;SDS011;51090;51.512;11.332;2022-08-18T07:14:33;11.13;;;8.77;;
64674;SDS011;51090;51.512;11.332;2022-08-18T07:19:59;11.30;;;7.93;;
64674;SDS011;51090;51.512;11.332;2022-08-18T07:22:28;14.70;;;9.73;;
64674;SDS011;51090;51.512;11.332;2022-08-18T07:24:55;14.75;;;8.13;;
64674;SDS011;51090;51.512;11.332;2022-08-18T07:27:45;9.77;;;8.05;;
64674;SDS011;51090;51.512;11.332;2022-08-18T07:35:16;9.13;;;7.65;;
64674;SDS011;51090;51.512;11.332;2022-08-18T07:37:59;9.77;;;7.45;;
64674;SDS011;51090;51.512;11.332;2022-08-18T07:40:31;10.10;;;7.38;;
64674;SDS011;51090;51.512;11.332;2022-08-18T07:43:12;11.30;;;7.55;;
64674;SDS011;51090;51.512;11.332;2022-08-18T07:45:53;9.73;;;7.05;;
64674;SDS011;51090;51.512;11.332;2022-08-18T07:48:31;9.20;;;7.10;;
64674;SDS011;51090;51.512;11.332;2022-08-18T07:54:30;8.80;;;6.57;;
64674;SDS011;51090;51.512;11.332;2022-08-18T08:03:22;12.65;;;6.13;;
64674;SDS011;51090;51.512;11.332;2022-08-18T08:06:18;11.98;;;6.22;;
64674;SDS011;51090;51.512;11.332;2022-08-18T08:09:11;11.60;;;6.03;;
64674;SDS011;51090;51.512;11.332;2022-08-18T08:12:22;22.40;;;7.28;;
64674;SDS011;51090;51.512;11.332;2022-08-18T08:20:45;19.58;;;12.43;;
64674;SDS011;51090;51.512;11.332;2022-08-18T08:23:21;17.15;;;12.18;;
64674;SDS011;51090;51.512;11.332;2022-08-18T08:29:10;18.77;;;11.93;;
64674;SDS011;51090;51.512;11.332;2022-08-18T08:32:05;19.98;;;10.25;;
64674;SDS011;51090;51.512;11.332;2022-08-18T08:35:10;20.25;;;10.73;;
64674;SDS011;51090;51.512;11.332;2022-08-18T08:40:43;14.95;;;10.48;;
64674;SDS011;51090;51.512;11.332;2022-08-18T08:43:22;17.63;;;11.27;;
64674;SDS011;51090;51.512;11.332;2022-08-18T08:46:29;15.48;;;10.77;;
64674;SDS011;51090;51.512;11.332;2022-08-18T08:49:18;18.65;;;11.80;;
64674;SDS011;51090;51.512;11.332;2022-08-18T08:51:59;17.63;;;10.88;;
64674;SDS011;51090;51.512;11.332;2022-08-18T08:54:44;14.93;;;10.48;;
64674;SDS011;51090;51.512;11.332;2022-08-18T08:57:50;17.73;;;10.70;;
64674;SDS011;51090;51.512;11.332;2022-08-18T09:02:53;17.80;;;9.38;;
64674;SDS011;51090;51.512;11.332;2022-08-18T09:05:49;17.80;;;10.50;;
64674;SDS011;51090;51.512;11.332;2022-08-18T09:08:57;12.82;;;9.75;;
64674;SDS011;51090;51.512;11.332;2022-08-18T09:11:57;21.77;;;12.48;;
64674;SDS011;51090;51.512;11.332;2022-08-18T09:22:44;15.13;;;10.20;;
64674;SDS011;51090;51.512;11.332;2022-08-18T09:31:20;22.33;;;10.77;;
64674;SDS011;51090;51.512;11.332;2022-08-18T09:39:18;33.45;;;12.32;;
64674;SDS011;51090;51.512;11.332;2022-08-18T09:42:14;26.25;;;10.60;;
64674;SDS011;51090;51.512;11.332;2022-08-18T09:49:46;15.30;;;10.07;;
64674;SDS011;51090;51.512;11.332;2022-08-18T09:54:58;13.82;;;9.25;;
64674;SDS011;51090;51.512;11.332;2022-08-18T09:57:30;16.98;;;10.40;;
64674;SDS011;51090;51.512;11.332;2022-08-18T10:07:48;17.48;;;11.95;;
64674;SDS011;51090;51.512;11.332;2022-08-18T10:16:48;21.58;;;14.38;;
64674;SDS011;51090;51.512;11.332;2022-08-18T10:22:34;20.33;;;14.25;;
64674;SDS011;51090;51.512;11.332;2022-08-18T10:25:10;22.73;;;15.13;;
64674;SDS011;51090;51.512;11.332;2022-08-18T10:32:56;17.33;;;12.10;;
64674;SDS011;51090;51.512;11.332;2022-08-18T10:38:09;26.23;;;12.43;;
64674;SDS011;51090;51.512;11.332;2022-08-18T10:41:08;19.52;;;13.68;;
64674;SDS011;51090;51.512;11.332;2022-08-18T10:43:47;21.67;;;13.18;;
64674;SDS011;51090;51.512;11.332;2022-08-18T10:46:20;27.10;;;13.98;;
64674;SDS011;51090;51.512;11.332;2022-08-18T10:49:02;19.50;;;13.00;;
64674;SDS011;51090;51.512;11.332;2022-08-18T10:51:47;21.05;;;14.55;;
64674;SDS011;51090;51.512;11.332;2022-08-18T10:55:08;18.25;;;13.65;;
64674;SDS011;51090;51.512;11.332;2022-08-18T10:58:08;22.45;;;15.38;;
64674;SDS011;51090;51.512;11.332;2022-08-18T11:04:08;19.23;;;13.73;;
64674;SDS011;51090;51.512;11.332;2022-08-18T11:07:00;21.17;;;16.85;;
64674;SDS011;51090;51.512;11.332;2022-08-18T11:09:32;23.67;;;16.90;;
64674;SDS011;51090;51.512;11.332;2022-08-18T11:12:00;25.10;;;19.27;;
64674;SDS011;51090;51.512;11.332;2022-08-18T11:20:28;19.58;;;15.52;;
64674;SDS011;51090;51.512;11.332;2022-08-18T11:22:56;20.08;;;15.95;;
64674;SDS011;51090;51.512;11.332;2022-08-18T11:25:30;26.85;;;18.02;;
64674;SDS011;51090;51.512;11.332;2022-08-18T11:27:59;23.90;;;17.10;;
64674;SDS011;51090;51.512;11.332;2022-08-18T11:30:28;25.30;;;17.83;;
64674;SDS011;51090;51.512;11.332;2022-08-18T11:33:01;19.35;;;15.52;;
64674;SDS011;51090;51.512;11.332;2022-08-18T11:35:30;20.45;;;15.13;;
64674;SDS011;51090;51.512;11.332;2022-08-18T11:38:10;24.60;;;16.77;;
64674;SDS011;51090;51.512;11.332;2022-08-18T11:40:42;24.05;;;15.48;;
64674;SDS011;51090;51.512;11.332;2022-08-18T11:43:22;20.45;;;15.77;;
64674;SDS011;51090;51.512;11.332;2022-08-18T11:45:58;20.42;;;14.85;;
64674;SDS011;51090;51.512;11.332;2022-08-18T11:48:36;22.83;;;16.05;;
64674;SDS011;51090;51.512;11.332;2022-08-18T11:51:16;19.77;;;15.45;;
64674;SDS011;51090;51.512;11.332;2022-08-18T11:56:39;23.65;;;16.48;;
64674;SDS011;51090;51.512;11.332;2022-08-18T12:01:50;18.83;;;15.15;;
64674;SDS011;51090;51.512;11.332;2022-08-18T12:04:31;21.52;;;16.17;;
64674;SDS011;51090;51.512;11.332;2022-08-18T12:07:10;19.98;;;15.82;;
64674;SDS011;51090;51.512;11.332;2022-08-18T12:09:41;17.70;;;14.32;;
64674;SDS011;51090;51.512;11.332;2022-08-18T12:12:38;19.77;;;15.68;;
64674;SDS011;51090;51.512;11.332;2022-08-18T12:17:44;20.58;;;15.23;;
64674;SDS011;51090;51.512;11.332;2022-08-18T12:20:12;19.08;;;15.23;;
64674;SDS011;51090;51.512;11.332;2022-08-18T12:22:40;19.92;;;15.18;;
64674;SDS011;51090;51.512;11.332;2022-08-18T12:25:09;23.48;;;17.10;;
64674;SDS011;51090;51.512;11.332;2022-08-18T12:27:40;21.92;;;16.48;;
64674;SDS011;51090;51.512;11.332;2022-08-18T12:30:06;22.38;;;16.67;;
64674;SDS011;51090;51.512;11.332;2022-08-18T12:32:34;22.75;;;17.55;;
64674;SDS011;51090;51.512;11.332;2022-08-18T12:35:00;23.92;;;19.20;;
64674;SDS011;51090;51.512;11.332;2022-08-18T12:37:29;21.70;;;16.95;;
64674;SDS011;51090;51.512;11.332;2022-08-18T12:39:55;25.55;;;17.30;;
64674;SDS011;51090;51.512;11.332;2022-08-18T12:42:23;23.08;;;17.38;;
64674;SDS011;51090;51.512;11.332;2022-08-18T12:44:49;25.35;;;17.13;;
64674;SDS011;51090;51.512;11.332;2022-08-18T12:47:20;22.73;;;16.85;;
64674;SDS011;51090;51.512;11.332;2022-08-18T12:49:49;24.98;;;17.95;;
64674;SDS011;51090;51.512;11.332;2022-08-18T12:52:16;19.27;;;15.93;;
64674;SDS011;51090;51.512;11.332;2022-08-18T12:54:43;20.45;;;16.45;;
64674;SDS011;51090;51.512;11.332;2022-08-18T12:57:12;19.63;;;16.00;;
64674;SDS011;51090;51.512;11.332;2022-08-18T12:59:50;19.77;;;15.60;;
64674;SDS011;51090;51.512;11.332;2022-08-18T13:02:16;20.75;;;16.25;;
64674;SDS011;51090;51.512;11.332;2022-08-18T13:04:42;20.27;;;14.93;;
64674;SDS011;51090;51.512;11.332;2022-08-18T13:07:09;18.52;;;14.13;;
64674;SDS011;51090;51.512;11.332;2022-08-18T13:09:36;20.85;;;14.55;;
64674;SDS011;51090;51.512;11.332;2022-08-18T13:12:03;16.25;;;13.45;;
64674;SDS011;51090;51.512;11.332;2022-08-18T13:14:30;20.88;;;14.80;;
64674;SDS011;51090;51.512;11.332;2022-08-18T13:16:56;21.15;;;15.15;;
64674;SDS011;51090;51.512;11.332;2022-08-18T13:19:22;19.92;;;13.38;;
64674;SDS011;51090;51.512;11.332;2022-08-18T13:21:48;16.88;;;13.07;;
64674;SDS011;51090;51.512;11.332;2022-08-18T13:24:14;17.27;;;13.43;;
64674;SDS011;51090;51.512;11.332;2022-08-18T13:26:43;14.95;;;12.32;;
64674;SDS011;51090;51.512;11.332;2022-08-18T13:29:11;15.63;;;11.93;;
64674;SDS011;51090;51.512;11.332;2022-08-18T13:31:39;14.90;;;11.82;;
64674;SDS011;51090;51.512;11.332;2022-08-18T13:34:05;14.82;;;11.38;;
64674;SDS011;51090;51.512;11.332;2022-08-18T13:36:33;16.25;;;11.93;;
64674;SDS011;51090;51.512;11.332;2022-08-18T13:39:09;16.98;;;13.13;;
64674;SDS011;51090;51.512;11.332;2022-08-18T13:41:44;15.98;;;12.50;;
64674;SDS011;51090;51.512;11.332;2022-08-18T13:44:13;19.42;;;13.80;;
64674;SDS011;51090;51.512;11.332;2022-08-18T13:46:42;15.82;;;13.00;;
64674;SDS011;51090;51.512;11.332;2022-08-18T13:49:15;16.50;;;12.50;;
64674;SDS011;51090;51.512;11.332;2022-08-18T13:51:43;15.57;;;12.93;;
64674;SDS011;51090;51.512;11.332;2022-08-18T13:54:15;14.15;;;11.35;;
64674;SDS011;51090;51.512;11.332;2022-08-18T13:57:00;17.83;;;13.40;;
64674;SDS011;51090;51.512;11.332;2022-08-18T13:59:27;20.20;;;15.80;;
64674;SDS011;51090;51.512;11.332;2022-08-18T14:01:57;16.80;;;13.95;;
64674;SDS011;51090;51.512;11.332;2022-08-18T14:04:26;16.88;;;13.88;;
64674;SDS011;51090;51.512;11.332;2022-08-18T14:06:52;17.90;;;13.93;;
64674;SDS011;51090;51.512;11.332;2022-08-18T14:09:19;17.02;;;12.52;;
64674;SDS011;51090;51.512;11.332;2022-08-18T14:11:45;16.40;;;13.10;;
64674;SDS011;51090;51.512;11.332;2022-08-18T14:14:13;20.02;;;14.20;;
64674;SDS011;51090;51.512;11.332;2022-08-18T14:16:39;21.23;;;15.68;;
64674;SDS011;51090;51.512;11.332;2022-08-18T14:19:04;20.88;;;13.77;;
64674;SDS011;51090;51.512;11.332;2022-08-18T14:21:50;16.65;;;14.68;;
64674;SDS011;51090;51.512;11.332;2022-08-18T14:24:36;16.85;;;14.15;;
64674;SDS011;51090;51.512;11.332;2022-08-18T14:27:29;20.10;;;15.77;;
64674;SDS011;51090;51.512;11.332;2022-08-18T14:29:59;20.05;;;16.90;;
64674;SDS011;51090;51.512;11.332;2022-08-18T14:32:26;22.50;;;15.88;;
64674;SDS011;51090;51.512;11.332;2022-08-18T14:34:54;19.05;;;16.33;;
64674;SDS011;51090;51.512;11.332;2022-08-18T14:37:22;19.85;;;16.38;;
64674;SDS011;51090;51.512;11.332;2022-08-18T14:39:48;21.00;;;17.25;;
64674;SDS011;51090;51.512;11.332;2022-08-18T14:42:15;21.30;;;17.30;;
64674;SDS011;51090;51.512;11.332;2022-08-18T14:44:43;25.42;;;18.13;;
64674;SDS011;51090;51.512;11.332;2022-08-18T14:47:09;20.42;;;16.65;;
64674;SDS011;51090;51.512;11.332;2022-08-18T14:49:35;21.88;;;17.85;;
64674;SDS011;51090;51.512;11.332;2022-08-18T14:52:01;21.55;;;17.75;;
64674;SDS011;51090;51.512;11.332;2022-08-18T14:54:29;21.33;;;17.52;;
64674;SDS011;51090;51.512;11.332;2022-08-18T14:56:55;22.05;;;17.63;;
64674;SDS011;51090;51.512;11.332;2022-08-18T14:59:22;22.67;;;17.20;;
64674;SDS011;51090;51.512;11.332;2022-08-18T15:01:49;25.08;;;18.80;;
64674;SDS011;51090;51.512;11.332;2022-08-18T15:04:14;24.50;;;19.95;;
64674;SDS011;51090;51.512;11.332;2022-08-18T15:06:40;26.60;;;20.67;;
64674;SDS011;51090;51.512;11.332;2022-08-18T15:09:06;31.10;;;19.60;;
64674;SDS011;51090;51.512;11.332;2022-08-18T15:11:33;27.30;;;20.88;;
64674;SDS011;51090;51.512;11.332;2022-08-18T15:13:59;24.02;;;18.90;;
64674;SDS011;51090;51.512;11.332;2022-08-18T15:16:25;26.48;;;20.50;;
64674;SDS011;51090;51.512;11.332;2022-08-18T15:18:51;25.50;;;19.30;;
64674;SDS011;51090;51.512;11.332;2022-08-18T15:21:17;25.48;;;19.90;;
64674;SDS011;51090;51.512;11.332;2022-08-18T15:24:02;25.02;;;20.35;;
64674;SDS011;51090;51.512;11.332;2022-08-18T15:26:47;23.58;;;19.90;;
64674;SDS011;51090;51.512;11.332;2022-08-18T15:29:16;23.02;;;18.70;;
64674;SDS011;51090;51.512;11.332;2022-08-18T15:31:41;26.63;;;18.83;;
64674;SDS011;51090;51.512;11.332;2022-08-18T15:34:07;23.75;;;19.15;;
64674;SDS011;51090;51.512;11.332;2022-08-18T15:36:34;21.48;;;17.63;;
64674;SDS011;51090;51.512;11.332;2022-08-18T15:39:00;21.23;;;17.65;;
64674;SDS011;51090;51.512;11.332;2022-08-18T15:41:30;24.65;;;19.55;;
64674;SDS011;51090;51.512;11.332;2022-08-18T15:44:02;22.67;;;18.50;;
64674;SDS011;51090;51.512;11.332;2022-08-18T15:46:33;21.50;;;17.58;;
64674;SDS011;51090;51.512;11.332;2022-08-18T15:51:31;21.08;;;16.08;;
64674;SDS011;51090;51.512;11.332;2022-08-18T15:53:59;21.88;;;17.17;;
64674;SDS011;51090;51.512;11.332;2022-08-18T15:56:25;20.98;;;16.17;;
64674;SDS011;51090;51.512;11.332;2022-08-18T15:58:52;18.70;;;16.00;;
64674;SDS011;51090;51.512;11.332;2022-08-18T16:01:19;20.60;;;16.33;;
64674;SDS011;51090;51.512;11.332;2022-08-18T16:03:47;22.08;;;15.70;;
64674;SDS011;51090;51.512;11.332;2022-08-18T16:06:15;20.13;;;17.00;;
64674;SDS011;51090;51.512;11.332;2022-08-18T16:08:44;21.95;;;17.70;;
64674;SDS011;51090;51.512;11.332;2022-08-18T16:11:11;22.33;;;16.98;;
64674;SDS011;51090;51.512;11.332;2022-08-18T16:13:39;22.60;;;17.17;;
64674;SDS011;51090;51.512;11.332;2022-08-18T16:16:10;21.05;;;16.42;;
64674;SDS011;51090;51.512;11.332;2022-08-18T16:18:39;20.17;;;16.58;;
64674;SDS011;51090;51.512;11.332;2022-08-18T16:21:06;20.73;;;17.40;;
64674;SDS011;51090;51.512;11.332;2022-08-18T16:23:38;21.10;;;14.77;;
64674;SDS011;51090;51.512;11.332;2022-08-18T16:26:07;19.40;;;15.93;;
64674;SDS011;51090;51.512;11.332;2022-08-18T16:28:38;23.33;;;17.48;;
64674;SDS011;51090;51.512;11.332;2022-08-18T16:31:06;19.50;;;16.05;;
64674;SDS011;51090;51.512;11.332;2022-08-18T16:33:32;23.10;;;18.23;;
64674;SDS011;51090;51.512;11.332;2022-08-18T16:36:02;21.83;;;17.40;;
64674;SDS011;51090;51.512;11.332;2022-08-18T16:38:33;20.27;;;16.83;;
64674;SDS011;51090;51.512;11.332;2022-08-18T16:41:07;22.13;;;16.13;;
64674;SDS011;51090;51.512;11.332;2022-08-18T16:43:40;20.95;;;16.05;;
64674;SDS011;51090;51.512;11.332;2022-08-18T16:46:09;21.33;;;16.83;;
64674;SDS011;51090;51.512;11.332;2022-08-18T16:48:38;20.88;;;16.70;;
64674;SDS011;51090;51.512;11.332;2022-08-18T16:51:04;20.50;;;16.00;;
64674;SDS011;51090;51.512;11.332;2022-08-18T16:53:29;18.50;;;15.93;;
64674;SDS011;51090;51.512;11.332;2022-08-18T16:55:55;22.05;;;16.50;;
64674;SDS011;51090;51.512;11.332;2022-08-18T16:58:21;20.48;;;16.30;;
64674;SDS011;51090;51.512;11.332;2022-08-18T17:01:05;21.63;;;16.17;;
64674;SDS011;51090;51.512;11.332;2022-08-18T17:03:49;19.65;;;15.52;;
64674;SDS011;51090;51.512;11.332;2022-08-18T17:06:30;23.27;;;16.08;;